createdAt,value
2023-04-25T00:00:47.176Z,2.75
2023-04-25T00:05:49.977Z,2.40
2023-04-25T00:10:50.788Z,2.72
2023-04-25T00:15:51.435Z,2.22
2023-04-25T00:20:53.416Z,2.40
2023-04-25T00:25:54.013Z,2.78
2023-04-25T00:30:54.640Z,2.58
2023-04-25T00:35:57.625Z,2.58
2023-04-25T00:40:58.623Z,2.83
2023-04-25T00:45:59.275Z,2.70
2023-04-25T00:51:01.837Z,2.58
2023-04-25T00:56:02.502Z,3.38
2023-04-25T01:01:03.514Z,2.70
2023-04-25T01:06:06.158Z,3.53
2023-04-25T01:11:07.045Z,3.65
2023-04-25T01:16:08.092Z,3.08
2023-04-25T01:21:11.519Z,3.83
2023-04-25T01:26:13.895Z,3.58
2023-04-25T01:31:15.097Z,4.35
2023-04-25T01:36:17.438Z,3.85
2023-04-25T01:41:18.951Z,3.88
2023-04-25T01:46:19.735Z,3.88
2023-04-25T01:51:21.782Z,4.35
2023-04-25T01:56:22.670Z,3.97
2023-04-25T02:01:23.527Z,3.28
2023-04-25T02:06:43.734Z,3.33
2023-04-25T02:11:46.168Z,3.83
2023-04-25T02:17:02.717Z,4.15
2023-04-25T02:22:06.402Z,3.80
2023-04-25T02:27:07.395Z,3.72
2023-04-25T02:32:09.512Z,3.58
2023-04-25T02:37:11.467Z,3.75
2023-04-25T02:42:12.172Z,3.75
2023-04-25T02:47:12.837Z,3.70
2023-04-25T02:52:15.098Z,3.78
2023-04-25T02:57:18.624Z,4.18
2023-04-25T03:02:19.289Z,3.50
2023-04-25T03:07:21.406Z,4.03
2023-04-25T03:12:23.218Z,4.32
2023-04-25T03:17:24.620Z,3.92
2023-04-25T03:22:26.737Z,4.53
2023-04-25T03:27:27.734Z,4.15
2023-04-25T03:32:28.439Z,4.30
2023-04-25T03:37:30.612Z,4.45
2023-04-25T03:42:31.401Z,5.43
2023-04-25T03:47:32.301Z,4.90
2023-04-25T03:52:34.660Z,4.40
2023-04-25T03:57:35.462Z,4.45
2023-04-25T04:02:37.587Z,4.80
2023-04-25T04:07:41.198Z,4.50
2023-04-25T04:12:44.372Z,5.25
2023-04-25T04:17:47.980Z,5.75
2023-04-25T04:22:50.534Z,5.40
2023-04-25T04:27:55.495Z,4.90
2023-04-25T04:33:03.137Z,4.97
2023-04-25T04:38:05.762Z,5.25
2023-04-25T04:43:09.856Z,4.85
2023-04-25T04:48:27.238Z,4.55
2023-04-25T04:53:49.835Z,5.25
2023-04-25T04:59:03.843Z,5.13
2023-04-25T05:04:14.520Z,5.43
2023-04-25T05:09:28.953Z,5.15
2023-04-25T05:15:01.837Z,5.78
2023-04-25T05:20:16.240Z,5.30
2023-04-25T05:25:36.305Z,5.63
2023-04-25T05:30:55.543Z,5.50
2023-04-25T05:36:02.748Z,5.18
2023-04-25T05:41:05.130Z,5.15
2023-04-25T05:46:32.416Z,4.82
2023-04-25T05:51:51.490Z,4.40
2023-04-25T05:57:08.524Z,5.32
2023-04-25T06:02:09.245Z,4.63
2023-04-25T06:07:12.087Z,4.97
2023-04-25T06:12:14.124Z,5.57
2023-04-25T06:17:14.842Z,5.55
2023-04-25T06:22:15.674Z,5.80
2023-04-25T06:27:17.768Z,6.07
2023-04-25T06:32:19.087Z,5.35
2023-04-25T06:37:20.004Z,6.00
2023-04-25T06:42:22.079Z,5.85
2023-04-25T06:47:32.911Z,5.68
2023-04-25T06:52:34.618Z,4.70
2023-04-25T06:57:37.065Z,4.85
2023-04-25T07:02:57.779Z,4.78
2023-04-25T07:07:58.956Z,5.25
2023-04-25T07:13:01.941Z,4.50
2023-04-25T07:18:03.129Z,4.60
2023-04-25T07:23:03.834Z,4.57
2023-04-25T07:28:06.427Z,3.80
2023-04-25T07:33:07.785Z,4.20
2023-04-25T07:38:08.967Z,4.22
2023-04-25T07:43:13.255Z,4.70
2023-04-25T07:48:21.695Z,4.60
2023-04-25T07:53:23.791Z,3.92
2023-04-25T07:58:34.102Z,3.95
2023-04-25T08:03:37.349Z,3.03
2023-04-25T08:08:42.974Z,3.55
2023-04-25T08:13:48.109Z,2.97
2023-04-25T08:18:49.268Z,3.35
2023-04-25T08:23:50.165Z,2.83
2023-04-25T08:29:03.088Z,2.85
2023-04-25T08:34:04.015Z,2.95
2023-04-25T08:39:08.990Z,3.33
2023-04-25T08:44:21.876Z,2.53
2023-04-25T08:49:23.046Z,3.13
2023-04-25T08:54:35.723Z,3.10
2023-04-25T08:59:41.583Z,3.58
2023-04-25T09:04:43.452Z,3.08
2023-04-25T09:09:44.184Z,3.00
2023-04-25T09:15:05.063Z,3.60
2023-04-25T09:20:21.362Z,3.35
2023-04-25T09:25:22.136Z,3.42
2023-04-25T09:30:33.340Z,4.60
2023-04-25T09:35:43.077Z,2.80
2023-04-25T09:40:50.646Z,3.08
2023-04-25T09:46:01.362Z,4.47
2023-04-25T09:51:08.686Z,4.68
2023-04-25T09:56:11.317Z,4.43
2023-04-25T10:01:14.172Z,4.05
2023-04-25T10:06:30.698Z,4.50
2023-04-25T10:11:32.845Z,4.07
2023-04-25T10:16:35.450Z,3.50
2023-04-25T10:21:39.103Z,3.83
2023-04-25T10:26:40.480Z,2.90
2023-04-25T10:31:48.697Z,3.47
2023-04-25T10:36:54.014Z,3.95
2023-04-25T10:41:57.189Z,3.45
2023-04-25T10:47:00.859Z,3.83
2023-04-25T10:52:19.767Z,2.88
2023-04-25T10:57:31.530Z,3.58
2023-04-25T11:02:33.935Z,3.42
2023-04-25T11:07:39.526Z,4.28
2023-04-25T11:12:40.355Z,5.13
2023-04-25T11:17:42.529Z,5.40
2023-04-25T11:22:46.006Z,4.20
2023-04-25T11:27:53.233Z,4.38
2023-04-25T11:32:55.905Z,4.28
2023-04-25T11:37:56.731Z,2.58
2023-04-25T11:42:57.412Z,3.88
2023-04-25T11:48:00.720Z,2.72
2023-04-25T11:53:01.560Z,2.28
2023-04-25T11:58:03.254Z,1.70
2023-04-25T12:03:05.819Z,1.75
2023-04-25T12:08:13.912Z,2.08
2023-04-25T12:13:22.690Z,2.20
2023-04-25T12:18:26.234Z,2.38
2023-04-25T12:23:28.766Z,2.58
2023-04-25T12:28:29.626Z,2.20
2023-04-25T12:33:33.147Z,2.30
2023-04-25T12:38:38.329Z,2.33
2023-04-25T12:43:39.076Z,2.45
2023-04-25T12:48:41.082Z,2.45
2023-04-25T12:53:41.783Z,2.72
2023-04-25T12:58:44.709Z,4.28
2023-04-25T13:03:46.987Z,3.20
2023-04-25T13:08:48.377Z,3.28
2023-04-25T13:13:49.231Z,3.05
2023-04-25T13:18:51.338Z,4.40
2023-04-25T13:23:52.416Z,3.53
2023-04-25T13:28:53.708Z,3.65
2023-04-25T13:33:55.748Z,4.43
2023-04-25T13:38:57.192Z,4.93
2023-04-25T13:43:58.040Z,4.07
2023-04-25T13:49:09.991Z,3.88
2023-04-25T13:54:13.560Z,3.33
2023-04-25T13:59:14.282Z,2.95
2023-04-25T14:04:16.392Z,3.35
2023-04-25T14:09:17.231Z,3.65
2023-04-25T14:14:17.999Z,3.40
2023-04-25T14:19:22.134Z,3.22
2023-04-25T14:24:23.142Z,3.58
2023-04-25T14:29:23.980Z,3.13
2023-04-25T14:34:26.117Z,3.22
2023-04-25T14:39:26.831Z,3.30
2023-04-25T14:44:27.503Z,4.10
2023-04-25T14:49:30.071Z,4.00
2023-04-25T14:54:30.772Z,3.10
2023-04-25T14:59:31.408Z,3.50
2023-04-25T15:04:33.630Z,4.05
2023-04-25T15:09:34.385Z,2.85
2023-04-25T15:14:35.482Z,4.25
2023-04-25T15:19:37.651Z,3.25
2023-04-25T15:24:38.433Z,3.22
2023-04-25T15:29:39.086Z,2.60
2023-04-25T15:34:41.133Z,2.30
2023-04-25T15:39:41.900Z,1.95
2023-04-25T15:44:42.580Z,2.35
2023-04-25T15:49:45.606Z,2.03
2023-04-25T15:54:46.254Z,1.70
2023-04-25T15:59:47.182Z,1.98
2023-04-25T16:04:49.994Z,2.13
2023-04-25T16:09:50.718Z,2.17
2023-04-25T16:14:52.541Z,1.88
2023-04-25T16:19:55.128Z,1.83
2023-04-25T16:24:55.953Z,2.00
2023-04-25T16:29:56.634Z,2.10
2023-04-25T16:34:59.082Z,2.58
2023-04-25T16:39:59.892Z,2.38
2023-04-25T16:45:00.612Z,2.17
2023-04-25T16:50:03.066Z,2.10
2023-04-25T16:55:03.771Z,1.70
2023-04-25T17:00:05.682Z,2.17
2023-04-25T17:05:08.794Z,1.58
2023-04-25T17:10:10.349Z,1.88
2023-04-25T17:15:11.753Z,2.05
2023-04-25T17:20:14.993Z,2.80
2023-04-25T17:25:15.730Z,2.17
2023-04-25T17:30:17.328Z,1.63
2023-04-25T17:35:19.614Z,1.48
2023-04-25T17:40:21.302Z,2.00
2023-04-25T17:45:22.131Z,1.88
2023-04-25T17:50:24.163Z,1.92
2023-04-25T17:55:25.001Z,1.92
2023-04-25T18:00:25.873Z,1.75
2023-04-25T18:05:29.235Z,1.83
2023-04-25T18:10:31.754Z,1.80
2023-04-25T18:15:32.676Z,1.70
2023-04-25T18:20:34.743Z,2.05
2023-04-25T18:25:35.720Z,1.73
2023-04-25T18:30:38.031Z,1.60
2023-04-25T18:35:45.111Z,1.90
2023-04-25T18:41:00.038Z,2.30
2023-04-25T18:46:11.205Z,2.20
2023-04-25T18:51:13.400Z,1.75
2023-04-25T18:56:15.072Z,2.38
2023-04-25T19:01:16.047Z,1.98
2023-04-25T19:06:18.307Z,2.53
2023-04-25T19:11:21.054Z,1.63
2023-04-25T19:16:22.444Z,2.70
2023-04-25T19:21:24.581Z,1.75
2023-04-25T19:26:25.625Z,2.20
2023-04-25T19:31:27.603Z,1.85
2023-04-25T19:36:29.697Z,2.15
2023-04-25T19:41:31.005Z,2.08
2023-04-25T19:46:32.283Z,2.08
2023-04-25T19:51:34.591Z,2.25
2023-04-25T19:56:35.550Z,2.03
2023-04-25T20:01:36.426Z,2.00
2023-04-25T20:06:38.494Z,2.55
2023-04-25T20:11:39.162Z,2.20
2023-04-25T20:16:40.058Z,2.33
2023-04-25T20:21:43.009Z,1.95
2023-04-25T20:26:43.874Z,1.95
2023-04-25T20:31:44.561Z,2.05
2023-04-25T20:36:46.683Z,1.65
2023-04-25T20:41:47.534Z,2.00
2023-04-25T20:46:48.239Z,2.17
2023-04-25T20:51:50.252Z,2.15
2023-04-25T20:56:51.003Z,1.85
2023-04-25T21:01:51.737Z,2.13
2023-04-25T21:06:53.742Z,2.00
2023-04-25T21:11:54.381Z,1.95
2023-04-25T21:16:55.336Z,2.97
2023-04-25T21:21:57.414Z,1.92
2023-04-25T21:26:58.078Z,1.88
2023-04-25T21:31:58.768Z,2.05
2023-04-25T21:37:00.774Z,1.67
2023-04-25T21:42:03.197Z,1.90
2023-04-25T21:47:04.639Z,1.40
2023-04-25T21:52:06.920Z,1.35
2023-04-25T21:57:07.567Z,1.45
2023-04-25T22:02:08.390Z,1.42
2023-04-25T22:07:11.046Z,1.55
2023-04-25T22:12:12.502Z,1.65
2023-04-25T22:17:13.144Z,1.73
2023-04-25T22:22:15.189Z,1.45
2023-04-25T22:27:15.865Z,1.50
2023-04-25T22:32:16.639Z,1.63
2023-04-25T22:37:18.669Z,1.88
2023-04-25T22:42:19.376Z,1.42
2023-04-25T22:47:21.654Z,1.65
2023-04-25T22:52:23.623Z,1.70
2023-04-25T22:57:24.319Z,2.28
2023-04-25T23:02:25.821Z,1.80
2023-04-25T23:07:29.217Z,2.13
2023-04-25T23:12:29.884Z,1.90
2023-04-25T23:17:30.556Z,1.80
2023-04-25T23:22:32.554Z,1.77
2023-04-25T23:27:33.198Z,2.35
2023-04-25T23:32:33.965Z,1.90
2023-04-25T23:37:37.139Z,1.92
2023-04-25T23:42:38.164Z,2.30
2023-04-25T23:47:38.961Z,2.05
2023-04-25T23:52:41.055Z,2.22
2023-04-25T23:57:44.234Z,2.30
